createdAt,value
2019-02-07T00:00:33.232Z,23.50
2019-02-07T00:03:06.052Z,23.50
2019-02-07T00:05:38.838Z,23.40
2019-02-07T00:08:11.429Z,23.50
2019-02-07T00:10:44.133Z,23.60
2019-02-07T00:13:16.625Z,23.60
2019-02-07T00:15:50.186Z,23.60
2019-02-07T00:18:23.046Z,23.60
2019-02-07T00:20:55.607Z,23.60
2019-02-07T00:23:28.203Z,23.50
2019-02-07T00:26:00.862Z,23.50
2019-02-07T00:28:33.817Z,23.60
2019-02-07T00:31:06.794Z,23.60
2019-02-07T00:33:39.406Z,23.60
2019-02-07T00:36:11.905Z,23.70
2019-02-07T00:38:47.858Z,23.90
2019-02-07T00:41:21.478Z,24.10
2019-02-07T00:43:53.958Z,24.40
2019-02-07T00:46:26.340Z,24.70
2019-02-07T00:49:00.809Z,24.80
2019-02-07T00:51:33.376Z,24.90
2019-02-07T00:54:05.880Z,24.90
2019-02-07T00:56:39.858Z,25.00
2019-02-07T00:59:12.537Z,25.00
2019-02-07T01:01:45.356Z,24.90
2019-02-07T01:04:17.762Z,24.90
2019-02-07T01:06:50.581Z,24.90
2019-02-07T01:09:22.957Z,24.90
2019-02-07T01:11:55.496Z,24.90
2019-02-07T01:14:28.323Z,24.90
2019-02-07T01:17:00.882Z,24.70
2019-02-07T01:19:33.750Z,24.60
2019-02-07T01:22:06.459Z,24.40
2019-02-07T01:24:38.951Z,24.20
2019-02-07T01:27:11.431Z,24.20
2019-02-07T01:29:44.091Z,24.10
2019-02-07T01:32:17.110Z,24.10
2019-02-07T01:34:50.282Z,24.00
2019-02-07T01:37:22.842Z,23.80
2019-02-07T01:39:55.410Z,23.70
2019-02-07T01:42:29.057Z,23.40
2019-02-07T01:45:12.600Z,23.20
2019-02-07T01:47:35.434Z,23.00
2019-02-07T01:50:10.048Z,22.90
2019-02-07T01:52:43.668Z,22.80
2019-02-07T01:55:16.911Z,22.70
2019-02-07T01:57:49.400Z,22.60
2019-02-07T02:00:23.752Z,22.70
2019-02-07T02:02:56.230Z,22.70
2019-02-07T02:05:28.723Z,22.80
2019-02-07T02:08:01.428Z,22.80
2019-02-07T02:10:34.013Z,22.80
2019-02-07T02:13:07.278Z,22.90
2019-02-07T02:15:39.929Z,22.90
2019-02-07T02:18:12.482Z,22.90
2019-02-07T02:20:45.414Z,22.80
2019-02-07T02:23:17.995Z,22.80
2019-02-07T02:25:50.491Z,22.70
2019-02-07T02:28:24.232Z,22.50
2019-02-07T02:30:57.013Z,22.40
2019-02-07T02:33:29.968Z,22.40
2019-02-07T02:36:02.619Z,22.30
2019-02-07T02:38:35.125Z,22.30
2019-02-07T02:41:15.801Z,22.30
2019-02-07T02:43:49.610Z,22.20
2019-02-07T02:46:26.414Z,22.20
2019-02-07T02:49:11.012Z,22.10
2019-02-07T02:51:35.883Z,22.10
2019-02-07T02:54:16.761Z,22.00
2019-02-07T02:56:50.220Z,22.00
2019-02-07T02:59:27.804Z,22.00
2019-02-07T03:05:08.093Z,21.90
2019-02-07T03:07:53.909Z,21.80
2019-02-07T03:10:39.754Z,21.80
2019-02-07T03:13:29.856Z,21.80
2019-02-07T03:16:04.917Z,21.80
2019-02-07T03:18:56.883Z,21.80
2019-02-07T03:21:45.389Z,21.80
2019-02-07T03:24:19.857Z,21.70
2019-02-07T03:26:53.606Z,21.70
2019-02-07T03:39:23.275Z,21.60
2019-02-07T03:41:59.558Z,21.60
2019-02-07T03:44:43.937Z,21.60
2019-02-07T03:47:26.743Z,21.70
2019-02-07T03:50:00.549Z,21.90
2019-02-07T03:52:49.691Z,21.90
2019-02-07T03:55:35.144Z,21.90
2019-02-07T03:58:11.724Z,21.90
2019-02-07T04:00:52.841Z,21.90
2019-02-07T04:03:35.534Z,21.90
2019-02-07T04:06:21.142Z,21.90
2019-02-07T04:09:08.011Z,21.90
2019-02-07T04:11:57.791Z,21.90
2019-02-07T04:14:34.584Z,21.90
2019-02-07T04:17:29.377Z,21.80
2019-02-07T04:20:05.585Z,21.80
2019-02-07T04:22:42.272Z,21.90
2019-02-07T04:25:25.171Z,21.90
2019-02-07T04:28:05.339Z,21.90
2019-02-07T04:30:47.938Z,21.90
2019-02-07T04:36:58.158Z,21.70
2019-02-07T04:39:39.340Z,21.70
2019-02-07T04:42:13.773Z,21.70
2019-02-07T04:44:50.441Z,21.60
2019-02-07T04:47:39.446Z,21.60
2019-02-07T04:50:20.821Z,21.60
2019-02-07T04:53:18.378Z,21.50
2019-02-07T04:56:08.181Z,21.40
2019-02-07T04:59:00.151Z,21.30
2019-02-07T05:01:42.421Z,21.20
2019-02-07T05:04:18.059Z,21.10
2019-02-07T05:07:08.795Z,21.10
2019-02-07T05:09:48.802Z,21.00
2019-02-07T05:12:22.466Z,21.00
2019-02-07T05:15:37.671Z,21.00
2019-02-07T05:18:28.040Z,21.10
2019-02-07T05:24:29.944Z,21.00
2019-02-07T05:27:20.377Z,21.00
2019-02-07T05:30:28.210Z,21.00
2019-02-07T05:33:04.861Z,20.90
2019-02-07T05:35:45.405Z,21.00
2019-02-07T05:38:44.993Z,21.00
2019-02-07T05:41:54.971Z,21.00
2019-02-07T05:45:04.825Z,21.00
2019-02-07T05:48:01.346Z,21.00
2019-02-07T05:50:38.915Z,21.10
2019-02-07T05:53:23.092Z,21.10
2019-02-07T05:56:17.642Z,21.10
2019-02-07T05:59:13.549Z,21.10
2019-02-07T06:02:08.279Z,21.10
2019-02-07T06:04:42.163Z,21.10
2019-02-07T06:07:37.038Z,21.10
2019-02-07T06:10:31.946Z,21.10
2019-02-07T06:13:09.682Z,21.10
2019-02-07T06:15:56.944Z,21.10
2019-02-07T06:18:49.084Z,21.10
2019-02-07T06:24:43.483Z,21.00
2019-02-07T06:27:15.895Z,20.90
2019-02-07T06:30:10.563Z,20.90
2019-02-07T06:33:07.167Z,20.90
2019-02-07T06:35:47.987Z,20.90
2019-02-07T06:38:30.010Z,20.80
2019-02-07T06:41:23.934Z,20.80
2019-02-07T06:44:06.993Z,20.80
2019-02-07T06:46:56.335Z,20.80
2019-02-07T06:49:46.020Z,20.80
2019-02-07T06:52:35.172Z,20.70
2019-02-07T06:55:23.949Z,20.70
2019-02-07T07:02:41.180Z,20.70
2019-02-07T07:05:18.226Z,20.60
2019-02-07T07:07:51.703Z,20.60
2019-02-07T07:10:41.782Z,20.60
2019-02-07T07:13:32.333Z,20.60
2019-02-07T07:16:22.005Z,20.60
2019-02-07T07:18:56.734Z,20.60
2019-02-07T07:21:39.542Z,20.70
2019-02-07T07:24:47.370Z,20.60
2019-02-07T07:27:20.449Z,20.60
2019-02-07T07:30:07.537Z,20.60
2019-02-07T07:32:59.283Z,20.60
2019-02-07T07:35:40.872Z,20.50
2019-02-07T07:38:24.432Z,20.50
2019-02-07T07:40:58.315Z,20.50
2019-02-07T07:43:37.907Z,20.50
2019-02-07T07:46:18.595Z,20.40
2019-02-07T07:49:07.513Z,20.40
2019-02-07T07:51:48.101Z,20.40
2019-02-07T07:54:30.567Z,20.40
2019-02-07T07:57:19.434Z,20.40
2019-02-07T07:59:53.388Z,20.40
2019-02-07T08:02:30.222Z,20.30
2019-02-07T08:05:06.989Z,20.30
2019-02-07T08:07:49.991Z,20.30
2019-02-07T08:10:39.667Z,20.30
2019-02-07T08:13:31.899Z,20.30
2019-02-07T08:16:06.762Z,20.30
2019-02-07T08:18:40.453Z,20.30
2019-02-07T08:21:37.457Z,20.30
2019-02-07T08:24:30.252Z,20.30
2019-02-07T08:27:20.157Z,20.30
2019-02-07T08:30:12.024Z,20.30
2019-02-07T08:32:52.580Z,20.30
2019-02-07T08:35:33.928Z,20.30
2019-02-07T08:38:17.341Z,20.30
2019-02-07T08:40:54.728Z,20.30
2019-02-07T08:43:44.415Z,20.20
2019-02-07T08:46:33.143Z,20.30
2019-02-07T08:49:26.088Z,20.20
2019-02-07T08:52:05.486Z,20.30
2019-02-07T08:54:56.752Z,20.20
2019-02-07T08:57:33.087Z,20.20
2019-02-07T09:00:12.536Z,20.20
2019-02-07T09:02:54.484Z,20.20
2019-02-07T09:05:39.800Z,20.20
2019-02-07T09:08:13.409Z,20.20
2019-02-07T09:11:03.435Z,20.20
2019-02-07T09:13:40.189Z,20.20
2019-02-07T09:16:25.993Z,20.30
2019-02-07T09:19:25.460Z,20.20
2019-02-07T09:22:16.026Z,20.30
2019-02-07T09:25:01.482Z,20.30
2019-02-07T09:28:03.827Z,20.30
2019-02-07T09:30:41.829Z,20.20
2019-02-07T09:33:33.845Z,20.20
2019-02-07T09:36:17.816Z,20.20
2019-02-07T09:38:46.014Z,20.20
2019-02-07T09:41:19.485Z,20.20
2019-02-07T09:43:53.368Z,20.20
2019-02-07T09:46:43.351Z,20.20
2019-02-07T09:49:17.003Z,20.10
2019-02-07T09:52:08.868Z,20.10
2019-02-07T09:54:43.120Z,20.10
2019-02-07T09:57:16.808Z,20.10
2019-02-07T09:59:59.562Z,20.10
2019-02-07T10:02:33.194Z,20.10
2019-02-07T10:05:06.983Z,20.10
2019-02-07T10:07:40.755Z,20.10
2019-02-07T10:10:30.611Z,20.10
2019-02-07T10:13:16.118Z,20.00
2019-02-07T10:15:55.912Z,20.00
2019-02-07T10:18:33.082Z,20.00
2019-02-07T10:21:19.561Z,20.00
2019-02-07T10:23:59.366Z,20.00
2019-02-07T10:26:36.160Z,20.00
2019-02-07T10:29:15.980Z,20.00
2019-02-07T10:31:55.608Z,20.00
2019-02-07T10:34:35.392Z,20.00
2019-02-07T10:37:12.295Z,20.00
2019-02-07T10:39:58.384Z,20.00
2019-02-07T10:42:48.130Z,20.00
2019-02-07T10:45:24.500Z,20.00
2019-02-07T10:47:58.270Z,19.90
2019-02-07T10:50:35.105Z,19.90
2019-02-07T10:53:11.581Z,19.90
2019-02-07T10:56:01.229Z,19.80
2019-02-07T10:58:49.954Z,19.80
2019-02-07T11:01:39.690Z,19.80
2019-02-07T11:04:29.470Z,19.80
2019-02-07T11:07:12.095Z,19.80
2019-02-07T11:10:01.630Z,19.80
2019-02-07T11:12:41.363Z,19.80
2019-02-07T11:15:19.057Z,19.80
2019-02-07T11:18:05.121Z,19.80
2019-02-07T11:20:38.665Z,19.80
2019-02-07T11:23:27.767Z,19.80
2019-02-07T11:26:01.486Z,19.80
2019-02-07T11:28:50.514Z,19.80
2019-02-07T11:31:30.465Z,19.80
2019-02-07T11:34:16.302Z,19.80
2019-02-07T11:37:06.107Z,19.80
2019-02-07T11:39:49.101Z,19.80
2019-02-07T11:42:22.741Z,19.80
2019-02-07T11:45:05.881Z,19.80
2019-02-07T11:47:48.691Z,19.80
2019-02-07T11:50:32.009Z,19.80
2019-02-07T11:53:14.987Z,19.80
2019-02-07T11:56:07.300Z,19.80
2019-02-07T11:58:59.209Z,19.90
2019-02-07T12:01:51.252Z,19.80
2019-02-07T12:04:40.003Z,19.90
2019-02-07T12:07:29.701Z,19.90
2019-02-07T12:10:12.499Z,19.90
2019-02-07T12:12:46.180Z,19.90
2019-02-07T12:15:35.232Z,19.90
2019-02-07T12:18:18.188Z,19.90
2019-02-07T12:21:08.024Z,19.90
2019-02-07T12:23:44.648Z,19.80
2019-02-07T12:26:36.577Z,19.80
2019-02-07T12:29:10.418Z,19.80
2019-02-07T12:31:50.249Z,19.80
2019-02-07T12:34:36.217Z,19.80
2019-02-07T12:37:11.150Z,19.80
2019-02-07T12:39:51.133Z,19.80
2019-02-07T12:42:40.559Z,19.90
2019-02-07T12:45:18.276Z,19.90
2019-02-07T12:47:52.029Z,19.80
2019-02-07T12:50:35.041Z,19.80
2019-02-07T12:53:20.585Z,19.80
2019-02-07T12:56:00.670Z,19.90
2019-02-07T12:58:50.217Z,19.80
2019-02-07T13:01:24.114Z,19.80
2019-02-07T13:03:57.666Z,19.80
2019-02-07T13:06:40.540Z,19.80
2019-02-07T13:09:21.020Z,19.80
2019-02-07T13:12:00.657Z,19.80
2019-02-07T13:14:50.631Z,19.80
2019-02-07T13:17:40.620Z,19.70
2019-02-07T13:20:34.583Z,19.70
2019-02-07T13:23:24.588Z,19.70
2019-02-07T13:26:10.535Z,19.70
2019-02-07T13:28:44.348Z,19.60
2019-02-07T13:31:18.164Z,19.60
2019-02-07T13:34:01.177Z,19.60
2019-02-07T13:36:50.195Z,19.60
2019-02-07T13:39:38.781Z,19.50
2019-02-07T13:42:21.831Z,19.50
2019-02-07T13:44:55.540Z,19.50
2019-02-07T13:47:32.432Z,19.50
2019-02-07T13:50:08.864Z,19.50
2019-02-07T13:53:00.484Z,19.60
2019-02-07T13:55:43.061Z,19.60
2019-02-07T13:58:19.585Z,19.50
2019-02-07T14:00:53.397Z,19.50
2019-02-07T14:03:43.390Z,19.50
2019-02-07T14:06:17.130Z,19.50
2019-02-07T14:09:07.101Z,19.50
2019-02-07T14:11:43.982Z,19.50
2019-02-07T14:14:36.274Z,19.50
2019-02-07T14:17:12.839Z,19.40
2019-02-07T14:20:02.972Z,19.40
2019-02-07T14:22:30.311Z,19.50
2019-02-07T14:25:03.892Z,19.40
2019-02-07T14:27:53.487Z,19.40
2019-02-07T14:30:27.180Z,19.40
2019-02-07T14:33:01.108Z,19.40
2019-02-07T14:35:38.139Z,19.40
2019-02-07T14:38:15.068Z,19.40
2019-02-07T14:40:54.833Z,19.40
2019-02-07T14:43:41.192Z,19.40
2019-02-07T14:46:31.112Z,19.40
2019-02-07T14:49:04.581Z,19.30
2019-02-07T14:51:36.961Z,19.30
2019-02-07T14:54:09.689Z,19.30
2019-02-07T14:56:42.110Z,19.30
2019-02-07T14:59:15.027Z,19.30
2019-02-07T15:01:47.563Z,19.30
2019-02-07T15:04:20.226Z,19.30
2019-02-07T15:06:52.588Z,19.30
2019-02-07T15:09:25.135Z,19.30
2019-02-07T15:11:57.903Z,19.30
2019-02-07T15:14:30.288Z,19.30
2019-02-07T15:17:02.760Z,19.30
2019-02-07T15:19:35.643Z,19.30
2019-02-07T15:22:09.124Z,19.30
2019-02-07T15:24:42.393Z,19.30
2019-02-07T15:27:15.032Z,19.30
2019-02-07T15:29:47.493Z,19.30
2019-02-07T15:32:20.846Z,19.20
2019-02-07T15:34:53.944Z,19.20
2019-02-07T15:37:26.597Z,19.20
2019-02-07T15:39:59.233Z,19.20
2019-02-07T15:42:32.130Z,19.20
2019-02-07T15:45:04.603Z,19.10
2019-02-07T15:47:37.062Z,19.10
2019-02-07T15:50:15.707Z,19.10
2019-02-07T15:52:48.399Z,19.10
2019-02-07T15:55:21.150Z,19.00
2019-02-07T15:57:54.080Z,19.00
2019-02-07T16:00:40.147Z,18.90
2019-02-07T16:03:14.635Z,18.90
2019-02-07T16:05:47.043Z,18.90
2019-02-07T16:08:19.627Z,18.80
2019-02-07T16:10:52.151Z,18.80
2019-02-07T16:13:26.058Z,18.80
2019-02-07T16:15:58.651Z,18.70
2019-02-07T16:18:31.400Z,18.60
2019-02-07T16:21:05.201Z,18.70
2019-02-07T16:23:37.652Z,18.60
2019-02-07T16:26:10.105Z,18.60
2019-02-07T16:28:43.073Z,18.60
2019-02-07T16:31:15.509Z,18.60
2019-02-07T16:33:48.226Z,18.50
2019-02-07T16:36:21.221Z,18.50
2019-02-07T16:38:54.153Z,18.50
2019-02-07T16:41:26.970Z,18.50
2019-02-07T16:43:59.751Z,18.50
2019-02-07T16:46:33.858Z,18.40
2019-02-07T16:49:06.618Z,18.40
2019-02-07T16:51:39.132Z,18.40
2019-02-07T16:54:27.502Z,18.40
2019-02-07T16:57:00.363Z,18.40
2019-02-07T16:59:33.111Z,18.40
2019-02-07T17:02:05.592Z,18.40
2019-02-07T17:04:38.472Z,18.40
2019-02-07T17:07:11.088Z,18.30
2019-02-07T17:09:44.530Z,18.30
2019-02-07T17:12:17.277Z,18.30
2019-02-07T17:14:50.154Z,18.30
2019-02-07T17:17:22.749Z,18.30
2019-02-07T17:19:55.117Z,18.30
2019-02-07T17:22:27.757Z,18.30
2019-02-07T17:25:00.353Z,18.30
2019-02-07T17:27:32.924Z,18.30
2019-02-07T17:30:05.308Z,18.30
2019-02-07T17:32:38.055Z,18.20
2019-02-07T17:35:11.178Z,18.20
2019-02-07T17:37:43.942Z,18.20
2019-02-07T17:40:26.730Z,18.20
2019-02-07T17:42:59.586Z,18.20
2019-02-07T17:45:32.793Z,18.10
2019-02-07T17:48:05.738Z,18.10
2019-02-07T17:50:39.210Z,18.00
2019-02-07T17:53:12.595Z,18.00
2019-02-07T17:55:45.450Z,18.00
2019-02-07T17:58:17.887Z,18.00
2019-02-07T18:01:02.414Z,18.00
2019-02-07T18:03:34.876Z,18.10
2019-02-07T18:06:07.754Z,18.10
2019-02-07T18:08:40.245Z,18.10
2019-02-07T18:11:13.105Z,18.00
2019-02-07T18:13:45.758Z,18.00
2019-02-07T18:16:18.554Z,18.00
2019-02-07T18:18:51.086Z,18.00
2019-02-07T18:21:33.635Z,18.00
2019-02-07T18:23:57.455Z,18.00
2019-02-07T18:26:30.304Z,18.00
2019-02-07T18:29:02.795Z,18.00
2019-02-07T18:31:35.607Z,18.00
2019-02-07T18:34:08.204Z,18.10
2019-02-07T18:36:40.700Z,18.10
2019-02-07T18:39:13.488Z,18.10
2019-02-07T18:41:46.300Z,18.10
2019-02-07T18:44:18.833Z,18.10
2019-02-07T18:46:51.481Z,18.20
2019-02-07T18:49:27.709Z,18.20
2019-02-07T18:52:00.217Z,18.30
2019-02-07T18:54:36.916Z,18.40
2019-02-07T18:57:09.462Z,18.50
2019-02-07T18:59:42.135Z,18.50
2019-02-07T19:02:14.837Z,18.70
2019-02-07T19:04:47.553Z,18.80
2019-02-07T19:07:20.146Z,19.00
2019-02-07T19:09:52.638Z,19.10
2019-02-07T19:12:25.354Z,19.30
2019-02-07T19:14:58.013Z,19.40
2019-02-07T19:17:30.607Z,19.60
2019-02-07T19:20:03.649Z,19.70
2019-02-07T19:22:36.221Z,19.80
2019-02-07T19:25:10.954Z,19.90
2019-02-07T19:27:43.626Z,20.00
2019-02-07T19:30:30.357Z,20.10
2019-02-07T19:33:02.985Z,20.30
2019-02-07T19:35:35.362Z,20.40
2019-02-07T19:38:08.417Z,20.50
2019-02-07T19:40:40.988Z,20.60
2019-02-07T19:43:13.914Z,20.70
2019-02-07T19:45:46.384Z,20.80
2019-02-07T19:48:18.968Z,20.90
2019-02-07T19:50:51.574Z,21.10
2019-02-07T19:53:24.157Z,21.20
2019-02-07T19:55:56.790Z,21.30
2019-02-07T19:58:29.584Z,21.40
2019-02-07T20:01:02.178Z,21.50
2019-02-07T20:03:35.938Z,21.60
2019-02-07T20:06:08.803Z,21.70
2019-02-07T20:08:41.571Z,21.80
2019-02-07T20:11:14.234Z,21.90
2019-02-07T20:13:46.743Z,22.00
2019-02-07T20:16:19.527Z,22.00
2019-02-07T20:18:52.163Z,22.10
2019-02-07T20:21:25.627Z,22.20
2019-02-07T20:23:59.400Z,22.30
2019-02-07T20:26:32.159Z,22.40
2019-02-07T20:29:04.864Z,22.60
2019-02-07T20:31:37.812Z,22.70
2019-02-07T20:34:11.716Z,22.80
2019-02-07T20:36:44.196Z,23.00
2019-02-07T20:39:17.613Z,23.10
2019-02-07T20:41:50.261Z,23.30
2019-02-07T20:44:22.769Z,23.50
2019-02-07T20:46:55.613Z,23.60
2019-02-07T20:49:29.334Z,23.80
2019-02-07T20:52:02.302Z,23.90
2019-02-07T20:54:34.909Z,24.10
2019-02-07T20:57:07.527Z,24.10
2019-02-07T20:59:40.154Z,24.30
2019-02-07T21:02:12.687Z,24.40
2019-02-07T21:04:45.369Z,24.40
2019-02-07T21:07:17.848Z,24.70
2019-02-07T21:09:50.208Z,24.80
2019-02-07T21:12:23.156Z,25.00
2019-02-07T21:14:55.668Z,25.10
2019-02-07T21:17:28.988Z,25.30
2019-02-07T21:20:01.465Z,25.40
2019-02-07T21:22:34.713Z,25.50
2019-02-07T21:25:08.485Z,25.60
2019-02-07T21:27:41.076Z,25.70
2019-02-07T21:30:16.058Z,25.80
2019-02-07T21:32:48.741Z,26.00
2019-02-07T21:35:22.854Z,26.00
2019-02-07T21:37:55.246Z,26.10
2019-02-07T21:40:34.634Z,26.00
2019-02-07T21:43:07.338Z,25.90
2019-02-07T21:45:39.929Z,26.10
2019-02-07T21:48:12.555Z,26.20
2019-02-07T21:50:45.528Z,26.50
2019-02-07T21:53:18.322Z,26.80
2019-02-07T21:55:50.859Z,27.10
2019-02-07T21:58:23.420Z,27.30
2019-02-07T22:00:56.136Z,27.50
2019-02-07T22:03:28.801Z,27.50
2019-02-07T22:06:01.485Z,27.50
2019-02-07T22:08:34.289Z,27.60
2019-02-07T22:11:25.595Z,27.80
2019-02-07T22:13:59.221Z,28.10
2019-02-07T22:16:31.946Z,28.30
2019-02-07T22:19:04.464Z,28.60
2019-02-07T22:21:36.838Z,28.80
2019-02-07T22:24:09.758Z,28.50
2019-02-07T22:26:42.316Z,28.10
2019-02-07T22:29:15.323Z,27.80
2019-02-07T22:31:48.260Z,27.40
2019-02-07T22:34:20.796Z,27.10
2019-02-07T22:36:53.383Z,27.00
2019-02-07T22:39:26.043Z,27.00
2019-02-07T22:41:58.431Z,26.90
2019-02-07T22:44:30.977Z,26.80
2019-02-07T22:47:04.570Z,27.00
2019-02-07T22:49:37.069Z,27.00
2019-02-07T22:52:09.544Z,26.70
2019-02-07T22:54:42.241Z,26.50
2019-02-07T22:57:14.734Z,26.30
2019-02-07T22:59:47.529Z,26.40
2019-02-07T23:02:19.906Z,26.30
2019-02-07T23:04:52.403Z,26.80
2019-02-07T23:07:25.083Z,27.80
2019-02-07T23:09:57.547Z,28.60
2019-02-07T23:12:30.166Z,28.50
2019-02-07T23:15:03.015Z,28.50
2019-02-07T23:17:35.715Z,28.70
2019-02-07T23:20:10.271Z,28.90
2019-02-07T23:22:42.961Z,28.40
2019-02-07T23:25:15.538Z,28.10
2019-02-07T23:27:48.197Z,27.80
2019-02-07T23:30:21.476Z,27.50
2019-02-07T23:32:54.041Z,27.70
2019-02-07T23:35:26.458Z,27.50
2019-02-07T23:37:59.682Z,27.70
2019-02-07T23:40:32.269Z,27.80
2019-02-07T23:43:04.901Z,27.80
2019-02-07T23:45:37.433Z,27.90
2019-02-07T23:48:10.246Z,28.30
2019-02-07T23:50:42.818Z,28.20
2019-02-07T23:53:15.630Z,29.00
2019-02-07T23:55:49.096Z,29.30
2019-02-07T23:58:21.783Z,29.60
